Time;durP1;ratioP1;P1;durP2;ratioP2;P2;SDS_P1;SDS_P2;PMS_P1;PMS_P2;Temp;Humidity;BMP_temperature;BMP_pressure;BME280_temperature;BME280_humidity;BME280_pressure;Samples;Min_cycle;Max_cycle;Signal;HPM_P1;HPM_P2
2021/05/23 00:02:02;;;;;;;3.38;1.20;;;;;;;;;;3577066;40;20352;-69
2021/05/23 00:04:29;;;;;;;3.72;1.50;;;;;;;;;;3578914;40;20744;-69
2021/05/23 00:06:55;;;;;;;6.03;1.90;;;;;;;;;;3586626;40;20410;-69
2021/05/23 00:09:21;;;;;;;3.25;1.40;;;;;;;;;;3577436;40;20394;-69
2021/05/23 00:11:48;;;;;;;2.45;1.30;;;;;;;;;;3587210;40;20357;-69
2021/05/23 00:14:14;;;;;;;3.65;1.30;;;;;;;;;;3587032;40;20608;-69
2021/05/23 00:16:40;;;;;;;2.25;1.50;;;;;;;;;;3576253;40;20409;-69
2021/05/23 00:19:06;;;;;;;4.25;1.77;;;;;;;;;;3585572;40;20465;-69
2021/05/23 00:21:33;;;;;;;3.08;1.63;;;;;;;;;;3585849;40;21499;-70
2021/05/23 00:23:59;;;;;;;2.70;1.40;;;;;;;;;;3579934;40;20386;-69
2021/05/23 00:26:26;;;;;;;3.70;1.42;;;;;;;;;;3586630;40;20661;-69
2021/05/23 00:28:53;;;;;;;5.53;1.70;;;;;;;;;;3584510;40;20358;-69
2021/05/23 00:31:19;;;;;;;5.30;2.50;;;;;;;;;;3592082;40;20450;-69
2021/05/23 00:33:45;;;;;;;3.35;1.90;;;;;;;;;;3594756;40;20382;-70
2021/05/23 00:36:12;;;;;;;4.33;2.33;;;;;;;;;;3591123;40;20380;-69
2021/05/23 00:38:40;;;;;;;3.80;1.60;;;;;;;;;;3587636;40;20438;-70
2021/05/23 00:41:06;;;;;;;2.15;1.50;;;;;;;;;;3597029;40;20364;-70
2021/05/23 00:43:33;;;;;;;3.13;1.95;;;;;;;;;;3597013;40;20442;-69
2021/05/23 00:45:59;;;;;;;3.80;2.15;;;;;;;;;;3585773;40;20408;-70
2021/05/23 00:48:25;;;;;;;3.78;1.67;;;;;;;;;;3592408;40;20373;-69
2021/05/23 00:50:52;;;;;;;4.55;2.42;;;;;;;;;;3596979;40;20356;-69
2021/05/23 00:53:18;;;;;;;4.30;2.00;;;;;;;;;;3596705;40;20349;-69
2021/05/23 00:55:45;;;;;;;4.13;2.00;;;14.70;99.90;;;;;;3579828;40;20400;-68
2021/05/23 00:58:12;;;;;;;2.78;1.50;;;14.10;99.90;;;;;;3576442;40;20393;-69
2021/05/23 01:01:34;;;;;;;4.85;2.25;;;14.20;99.90;;;;;;3611207;23;20364;-67
2021/05/23 01:04:00;;;;;;;5.38;2.40;;;14.30;99.90;;;;;;3602386;39;20414;-68
2021/05/23 01:06:28;;;;;;;3.42;2.58;;;14.30;99.90;;;;;;3604575;39;20375;-69
2021/05/23 01:08:55;;;;;;;4.00;2.45;;;14.20;99.90;;;;;;3606172;39;20374;-69
2021/05/23 01:11:51;;;;;;;3.95;2.33;;;;;;;;;;3599049;39;20399;-68
2021/05/23 01:14:18;;;;;;;6.93;3.38;;;;;;;;;;3605897;39;20714;-69
2021/05/23 01:16:48;;;;;;;4.20;3.17;;;;;;;;;;3602442;39;20381;-69
2021/05/23 01:19:19;;;;;;;4.70;2.63;;;13.90;99.90;;;;;;3590094;39;20407;-69
2021/05/23 01:21:49;;;;;;;6.25;3.17;;;13.50;99.90;;;;;;3604969;39;20499;-69
2021/05/23 01:24:20;;;;;;;5.63;3.50;;;;;;;;;;3606365;39;20605;-69
2021/05/23 01:26:53;;;;;;;5.43;3.10;;;;;;;;;;3603258;39;20426;-69
2021/05/23 01:29:19;;;;;;;2.80;1.92;;;;;;;;;;3605220;39;20379;-69
2021/05/23 01:31:46;;;;;;;4.45;2.40;;;;;;;;;;3606054;39;20380;-69
2021/05/23 01:34:16;;;;;;;4.15;2.55;;;;;;;;;;3603965;39;20639;-69
2021/05/23 01:36:42;;;;;;;2.97;2.03;;;;;;;;;;3601088;39;20371;-69
2021/05/23 01:39:09;;;;;;;5.32;2.10;;;;;;;;;;3598868;39;20430;-69
2021/05/23 01:41:36;;;;;;;2.97;2.03;;;;;;;;;;3606014;39;20377;-69
2021/05/23 01:44:03;;;;;;;5.40;2.60;;;;;;;;;;3605899;39;20441;-69
2021/05/23 01:46:30;;;;;;;3.15;1.90;;;;;;;;;;3603744;39;20413;-69
2021/05/23 01:48:56;;;;;;;4.37;2.80;;;;;;;;;;3606608;39;20472;-69
2021/05/23 01:51:22;;;;;;;2.70;1.90;;;;;;;;;;3603782;39;20420;-68
2021/05/23 01:53:49;;;;;;;3.17;1.93;;;;;;;;;;3606806;39;20363;-69
2021/05/23 01:56:15;;;;;;;2.53;2.00;;;;;;;;;;3607607;39;20440;-69
2021/05/23 01:58:41;;;;;;;3.38;1.60;;;;;;;;;;3607468;39;20385;-69
2021/05/23 02:01:08;;;;;;;5.53;2.60;;;;;;;;;;3601466;39;20411;-68
2021/05/23 02:03:35;;;;;;;3.40;2.42;;;;;;;;;;3597251;40;20753;-68
2021/05/23 02:06:02;;;;;;;4.53;2.72;;;;;;;;;;3597388;39;20393;-69
2021/05/23 02:08:29;;;;;;;4.10;2.05;;;;;;;;;;3597393;39;20850;-69
2021/05/23 02:10:57;;;;;;;3.65;2.10;;;;;;;;;;3604242;39;20369;-68
2021/05/23 02:13:23;;;;;;;2.97;1.80;;;;;;;;;;3597440;39;20387;-68
2021/05/23 02:15:50;;;;;;;1.95;1.50;;;12.90;99.90;;;;;;3596043;39;20428;-69
2021/05/23 02:18:17;;;;;;;5.18;2.38;;;;;;;;;;3591778;39;20715;-69
2021/05/23 02:20:43;;;;;;;4.70;2.20;;;;;;;;;;3597296;39;20644;-69
2021/05/23 02:23:13;;;;;;;3.10;1.50;;;;;;;;;;3597293;40;20715;-68
2021/05/23 02:25:39;;;;;;;3.50;1.67;;;;;;;;;;3597555;40;20403;-69
2021/05/23 02:28:06;;;;;;;3.47;1.83;;;;;;;;;;3599949;39;20397;-68
2021/05/23 02:30:34;;;;;;;4.03;1.60;;;;;;;;;;3596438;39;20483;-68
2021/05/23 02:33:00;;;;;;;6.00;2.20;;;;;;;;;;3596122;40;20394;-72
2021/05/23 02:35:28;;;;;;;3.00;1.80;;;;;;;;;;3597453;39;20369;-71
2021/05/23 02:37:54;;;;;;;2.50;1.70;;;;;;;;;;3597409;39;20706;-72
2021/05/23 02:40:22;;;;;;;3.28;2.05;;;;;;;;;;3597545;39;20372;-71
2021/05/23 02:42:48;;;;;;;4.35;2.20;;;;;;;;;;3597171;40;20428;-72
2021/05/23 02:45:15;;;;;;;3.67;1.70;;;;;;;;;;3597287;39;20413;-72
2021/05/23 02:47:42;;;;;;;4.50;2.25;;;;;;;;;;3592186;40;20389;-72
2021/05/23 02:50:15;;;;;;;3.97;2.30;;;;;;;;;;3597249;39;20372;-70
2021/05/23 02:52:42;;;;;;;4.60;2.45;;;;;;;;;;3587766;40;20395;-71
2021/05/23 02:55:09;;;;;;;2.60;2.00;;;;;;;;;;3602408;39;20636;-71
2021/05/23 02:57:36;;;;;;;3.80;2.20;;;;;;;;;;3601709;39;20386;-71
2021/05/23 03:00:02;;;;;;;3.28;2.03;;;;;;;;;;3602318;39;20365;-72
2021/05/23 03:02:28;;;;;;;2.60;1.93;;;;;;;;;;3601502;39;20399;-71
2021/05/23 03:04:54;;;;;;;4.45;2.10;;;;;;;;;;3597353;39;20381;-72
2021/05/23 03:07:21;;;;;;;3.90;1.98;;;;;;;;;;3597126;39;20761;-72
2021/05/23 03:09:48;;;;;;;2.58;1.40;;;;;;;;;;3597217;39;20377;-71
2021/05/23 03:12:14;;;;;;;2.38;1.50;;;;;;;;;;3596958;39;20465;-72
2021/05/23 03:14:41;;;;;;;2.40;1.70;;;;;;;;;;3597522;39;20625;-71
2021/05/23 03:17:08;;;;;;;5.50;2.15;;;;;;;;;;3596987;40;20432;-72
2021/05/23 03:19:34;;;;;;;2.40;1.52;;;;;;;;;;3596918;39;20481;-71
2021/05/23 03:22:00;;;;;;;2.90;1.70;;;;;;;;;;3597065;39;20450;-71
2021/05/23 03:24:27;;;;;;;3.38;2.10;;;;;;;;;;3597164;39;20495;-71
2021/05/23 03:26:54;;;;;;;1.65;1.40;;;;;;;;;;3596981;39;20442;-71
2021/05/23 03:29:20;;;;;;;2.67;1.70;;;;;;;;;;3585544;40;20474;-71
2021/05/23 03:31:46;;;;;;;2.67;2.00;;;;;;;;;;3596905;39;20457;-71
2021/05/23 03:34:12;;;;;;;4.93;2.42;;;;;;;;;;3594578;39;20360;-71
2021/05/23 03:36:38;;;;;;;2.15;1.80;;;;;;;;;;3600006;39;20374;-71
2021/05/23 03:39:05;;;;;;;3.58;2.20;;;;;;;;;;3598679;39;20380;-71
2021/05/23 03:41:31;;;;;;;2.65;1.85;;;;;;;;;;3587489;40;20757;-71
2021/05/23 03:43:58;;;;;;;1.65;1.55;;;;;;;;;;3601728;39;20387;-71
2021/05/23 03:46:24;;;;;;;4.27;1.87;;;;;;;;;;3596512;39;20442;-71
2021/05/23 03:48:50;;;;;;;1.90;1.42;;;;;;;;;;3596862;40;20461;-72
2021/05/23 03:51:16;;;;;;;4.57;1.67;;;;;;;;;;3602589;39;20465;-71
2021/05/23 03:53:43;;;;;;;3.75;2.00;;;;;;;;;;3596786;39;20380;-72
2021/05/23 03:56:09;;;;;;;2.72;1.60;;;;;;;;;;3596821;40;20430;-71
2021/05/23 03:58:35;;;;;;;3.67;1.80;;;;;;;;;;3596614;39;20457;-71
2021/05/23 04:01:02;;;;;;;3.72;1.60;;;;;;;;;;3587431;40;20411;-71
2021/05/23 04:03:29;;;;;;;4.18;1.65;;;;;;;;;;3588967;39;20456;-71
2021/05/23 04:05:57;;;;;;;3.42;2.30;;;;;;;;;;3601161;39;20424;-71
2021/05/23 04:08:24;;;;;;;2.47;1.90;;;;;;;;;;3602383;39;20372;-71
2021/05/23 04:11:00;;;;;;;3.27;1.93;;;;;;;;;;3587285;40;20400;-71
2021/05/23 04:13:27;;;;;;;4.15;2.00;;;;;;;;;;3596642;39;20667;-71
2021/05/23 04:15:53;;;;;;;3.57;1.53;;;;;;;;;;3585575;40;20398;-71
2021/05/23 04:18:20;;;;;;;2.30;1.35;;;;;;;;;;3591142;39;20365;-71
2021/05/23 04:20:46;;;;;;;3.42;1.75;;;;;;;;;;3595711;40;20825;-71
2021/05/23 04:23:13;;;;;;;2.90;2.00;;;;;;;;;;3596639;39;20644;-71
2021/05/23 04:25:39;;;;;;;4.07;2.58;;;;;;;;;;3596580;39;20385;-71
2021/05/23 04:28:05;;;;;;;2.42;1.50;;;;;;;;;;3596423;39;20649;-71
2021/05/23 04:30:31;;;;;;;3.47;2.30;;;;;;;;;;3596632;39;20633;-71
2021/05/23 04:32:57;;;;;;;6.85;2.97;;;;;;;;;;3596513;40;20376;-71
2021/05/23 04:35:25;;;;;;;2.80;2.22;;;;;;;;;;3587178;40;20392;-71
2021/05/23 04:37:51;;;;;;;4.17;2.00;;;;;;;;;;3594699;39;20391;-71
2021/05/23 04:40:18;;;;;;;4.03;2.70;;;;;;;;;;3596443;39;20447;-71
2021/05/23 04:42:45;;;;;;;3.37;2.13;;;;;;;;;;3596217;39;20380;-71
2021/05/23 04:45:12;;;;;;;2.90;2.28;;;;;;;;;;3596393;39;20395;-72
2021/05/23 04:47:38;;;;;;;2.57;1.80;;;;;;;;;;3596240;39;20384;-71
2021/05/23 04:50:05;;;;;;;3.42;2.33;;;;;;;;;;3601484;39;20377;-71
2021/05/23 04:52:32;;;;;;;3.40;2.03;;;;;;;;;;3586778;39;20489;-71
2021/05/23 04:54:58;;;;;;;4.30;2.38;;;;;;;;;;3602740;39;20375;-71
2021/05/23 04:57:25;;;;;;;6.95;3.15;;;;;;;;;;3604467;39;20456;-71
2021/05/23 04:59:52;;;;;;;3.20;2.40;;;;;;;;;;3601769;39;20389;-71
2021/05/23 05:02:18;;;;;;;3.53;2.75;;;;;;;;;;3596623;39;20418;-71
2021/05/23 05:04:45;;;;;;;3.03;2.30;;;;;;;;;;3587290;40;20780;-71
2021/05/23 05:07:11;;;;;;;4.60;3.50;;;;;;;;;;3598950;39;20386;-71
2021/05/23 05:09:38;;;;;;;2.80;2.22;;;;;;;;;;3598477;39;20380;-71
2021/05/23 05:12:04;;;;;;;2.58;2.28;;;;;;;;;;3586861;40;20392;-71
2021/05/23 05:14:31;;;;;;;3.45;2.67;;;;;;;;;;3596484;39;20380;-69
2021/05/23 05:16:57;;;;;;;3.90;2.20;;;;;;;;;;3596151;39;20408;-69
2021/05/23 05:19:23;;;;;;;4.28;2.38;;;;;;;;;;3595059;39;20748;-69
2021/05/23 05:21:49;;;;;;;3.13;2.13;;;;;;;;;;3602927;39;20768;-70
2021/05/23 05:24:15;;;;;;;3.50;2.25;;;;;;;;;;3597804;39;20373;-69
2021/05/23 05:26:42;;;;;;;3.85;2.38;;;;;;;;;;3595697;40;20380;-69
2021/05/23 05:29:08;;;;;;;2.00;1.80;;;;;;;;;;3604763;39;20387;-71
2021/05/23 05:31:35;;;;;;;3.85;2.25;;;;;;;;;;3597864;39;20384;-71
2021/05/23 05:34:01;;;;;;;7.47;2.63;;;;;;;;;;3597618;39;20390;-71
2021/05/23 05:36:27;;;;;;;4.43;2.53;;;;;;;;;;3588122;40;20396;-71
2021/05/23 05:38:53;;;;;;;3.95;1.77;;;;;;;;;;3588053;39;20401;-71
2021/05/23 05:41:20;;;;;;;2.65;1.35;;;;;;;;;;3597677;40;20379;-71
2021/05/23 05:43:47;;;;;;;2.22;0.85;;;;;;;;;;3601973;39;20412;-71
2021/05/23 05:46:13;;;;;;;2.50;1.10;;;;;;;;;;3583457;40;20795;-71
2021/05/23 05:48:40;;;;;;;2.42;0.73;;;;;;;;;;3597405;39;20641;-71
2021/05/23 05:51:06;;;;;;;1.67;1.08;;;;;;;;;;3592502;39;20373;-71
2021/05/23 05:53:35;;;;;;;2.60;0.90;;;;;;;;;;3602516;39;20360;-71
2021/05/23 05:56:01;;;;;;;3.10;1.20;;;;;;;;;;3597660;39;20457;-71
2021/05/23 05:58:28;;;;;;;1.95;1.00;;;;;;;;;;3597532;39;20367;-71
2021/05/23 06:00:55;;;;;;;1.90;0.70;;;;;;;;;;3597593;40;20405;-71
2021/05/23 06:03:21;;;;;;;2.00;0.80;;;;;;;;;;3597835;39;20365;-71
2021/05/23 06:05:47;;;;;;;1.60;0.80;;;;;;;;;;3597574;39;20760;-71
2021/05/23 06:08:13;;;;;;;1.50;0.80;;;;;;;;;;3593261;39;20485;-71
2021/05/23 06:10:40;;;;;;;1.85;0.95;;;;;;;;;;3597707;39;20750;-72
2021/05/23 06:13:06;;;;;;;2.38;1.00;;;;;;;;;;3597549;39;20381;-71
2021/05/23 06:15:33;;;;;;;2.28;0.80;;;;;;;;;;3597449;39;20375;-72
2021/05/23 06:18:00;;;;;;;3.78;1.20;;;;;;;;;;3597549;39;20457;-71
2021/05/23 06:20:26;;;;;;;2.30;1.00;;;;;;;;;;3586533;40;20714;-72
2021/05/23 06:22:52;;;;;;;1.80;0.75;;;;;;;;;;3594498;39;20774;-71
2021/05/23 06:25:18;;;;;;;2.08;0.90;;;;;;;;;;3592991;39;20388;-72
2021/05/23 06:27:45;;;;;;;1.42;0.70;;;;;;;;;;3589312;39;20481;-72
2021/05/23 06:30:11;;;;;;;2.33;0.90;;;;;;;;;;3600017;39;20444;-72
2021/05/23 06:32:37;;;;;;;1.38;0.80;;;;;;;;;;3591589;39;20871;-72
2021/05/23 06:35:05;;;;;;;1.20;0.70;;;12.40;99.90;;;;;;3597350;39;20413;-72
2021/05/23 06:37:31;;;;;;;1.52;0.50;;;;;;;;;;3593055;40;20404;-72
2021/05/23 06:39:57;;;;;;;3.20;0.77;;;13.90;99.90;;;;;;3597326;39;20387;-72
2021/05/23 06:42:23;;;;;;;2.05;0.70;;;;;;;;;;3596155;39;20396;-72
2021/05/23 06:44:50;;;;;;;1.70;0.70;;;;;;;;;;3597347;39;20424;-71
2021/05/23 06:47:16;;;;;;;2.10;0.60;;;;;;;;;;3597274;40;20392;-72
2021/05/23 06:49:42;;;;;;;1.38;0.52;;;;;;;;;;3587742;40;20400;-71
2021/05/23 06:52:09;;;;;;;1.83;0.40;;;;;;;;;;3599210;39;20379;-72
2021/05/23 06:54:35;;;;;;;1.35;0.60;;;;;;;;;;3598335;39;20373;-71
2021/05/23 06:57:01;;;;;;;1.60;0.50;;;;;;;;;;3597280;39;20399;-71
2021/05/23 06:59:28;;;;;;;2.20;0.45;;;;;;;;;;3587748;39;20404;-72
2021/05/23 07:01:54;;;;;;;1.63;0.60;;;;;;;;;;3599046;39;20417;-72
2021/05/23 07:04:20;;;;;;;2.03;0.77;;;;;;;;;;3600234;39;20369;-71
2021/05/23 07:06:46;;;;;;;2.65;0.60;;;;;;;;;;3602168;39;20385;-71
2021/05/23 07:09:14;;;;;;;2.13;0.63;;;;;;;;;;3597238;39;20377;-71
2021/05/23 07:11:40;;;;;;;3.15;0.60;;;;;;;;;;3597181;40;20380;-72
2021/05/23 07:14:06;;;;;;;1.70;0.70;;;;;;;;;;3597081;39;20403;-72
2021/05/23 07:16:32;;;;;;;3.22;0.70;;;;;;;;;;3597185;39;20376;-72
2021/05/23 07:18:58;;;;;;;2.35;0.70;;;;;;;;;;3597151;39;20369;-71
2021/05/23 07:21:25;;;;;;;4.22;1.05;;;;;;;;;;3596864;39;20633;-72
2021/05/23 07:23:51;;;;;;;3.77;0.90;;;;;;;;;;3597995;39;20826;-72
2021/05/23 07:26:19;;;;;;;3.78;1.20;;;;;;;;;;3598648;39;20376;-72
2021/05/23 07:28:45;;;;;;;3.13;0.60;;;;;;;;;;3597069;39;20380;-72
2021/05/23 07:31:12;;;;;;;2.93;1.20;;;;;;;;;;3596880;39;20369;-72
2021/05/23 07:33:38;;;;;;;3.20;0.82;;;;;;;;;;3596875;39;20720;-72
2021/05/23 07:36:06;;;;;;;4.90;0.83;;;;;;;;;;3587289;40;20474;-72
2021/05/23 07:38:34;;;;;;;3.67;1.00;;;16.20;99.90;;;;;;3596728;40;20385;-72
2021/05/23 07:41:01;;;;;;;2.33;0.70;;;;;;;;;;3596640;39;20415;-72
2021/05/23 07:43:28;;;;;;;6.43;0.90;;;;;;;;;;3584526;40;20623;-72
2021/05/23 07:45:54;;;;;;;4.07;0.98;;;;;;;;;;3589299;40;20406;-72
2021/05/23 07:48:20;;;;;;;4.45;1.13;;;;;;;;;;3591135;39;20635;-72
2021/05/23 07:50:47;;;;;;;4.60;1.00;;;;;;;;;;3591576;39;20496;-72
2021/05/23 07:53:14;;;;;;;5.00;1.30;;;;;;;;;;3594927;39;20458;-71
2021/05/23 07:55:40;;;;;;;5.18;1.13;;;;;;;;;;3597007;39;20364;-72
2021/05/23 07:58:06;;;;;;;3.33;1.00;;;;;;;;;;3593562;39;20641;-72
2021/05/23 08:00:33;;;;;;;5.63;1.13;;;;;;;;;;3596502;39;20435;-72
2021/05/23 08:02:59;;;;;;;5.05;1.20;;;17.10;99.90;;;;;;3596138;39;20376;-73
2021/05/23 08:05:27;;;;;;;4.85;1.40;;;18.60;99.90;;;;;;3596184;39;20383;-72
2021/05/23 08:07:53;;;;;;;4.95;1.27;;;;;;;;;;3586774;40;20428;-72
2021/05/23 08:10:19;;;;;;;4.85;1.20;;;;;;;;;;3594557;39;20398;-71
2021/05/23 08:12:46;;;;;;;4.90;1.23;;;;;;;;;;3601451;39;20387;-71
2021/05/23 08:15:15;;;;;;;4.03;1.73;;;;;;;;;;3596610;39;20364;-71
2021/05/23 08:17:44;;;;;;;5.70;1.23;;;;;;;;;;3596123;39;20775;-71
2021/05/23 08:20:11;;;;;;;8.65;1.38;;;;;;;;;;3591668;40;20410;-69
2021/05/23 08:22:37;;;;;;;5.85;1.23;;;;;;;;;;3596491;39;20376;-71
2021/05/23 08:25:04;;;;;;;5.55;1.52;;;;;;;;;;3596856;39;20404;-71
2021/05/23 08:27:30;;;;;;;5.30;1.80;;;;;;;;;;3596417;39;20400;-71
2021/05/23 08:29:56;;;;;;;5.17;1.73;;;;;;;;;;3595884;39;20369;-71
2021/05/23 08:32:23;;;;;;;4.88;1.55;;;;;;;;;;3596017;39;20388;-71
2021/05/23 08:34:50;;;;;;;4.70;1.15;;;;;;;;;;3584958;40;20402;-71
2021/05/23 08:37:17;;;;;;;8.37;1.80;;;;;;;;;;3595701;39;20388;-72
2021/05/23 08:39:43;;;;;;;6.03;1.40;;;;;;;;;;3596224;39;20384;-72
2021/05/23 08:42:10;;;;;;;4.25;1.10;;;;;;;;;;3595596;39;20373;-71
2021/05/23 08:44:36;;;;;;;6.53;1.50;;;;;;;;;;3596023;39;20369;-71
2021/05/23 08:47:03;;;;;;;5.82;1.45;;;18.60;99.90;;;;;;3594966;40;20416;-72
2021/05/23 08:49:30;;;;;;;4.75;1.40;;;19.40;99.90;;;;;;3595122;40;20397;-72
2021/05/23 08:51:57;;;;;;;4.60;1.30;;;19.30;99.90;;;;;;3596369;39;20385;-72
2021/05/23 08:54:23;;;;;;;4.15;1.30;;;;;;;;;;3596353;39;20384;-71
2021/05/23 08:56:51;;;;;;;4.50;1.50;;;;;;;;;;3596694;40;20388;-72
2021/05/23 08:59:17;;;;;;;3.57;1.00;;;;;;;;;;3597827;39;20385;-72
2021/05/23 09:01:44;;;;;;;5.60;1.20;;;;;;;;;;3597880;39;20400;-72
2021/05/23 09:04:15;;;;;;;4.73;1.20;;;;;;;;;;3597715;39;20384;-71
2021/05/23 09:06:41;;;;;;;5.55;1.10;;;;;;;;;;3597663;39;20373;-72
2021/05/23 09:09:09;;;;;;;4.20;1.00;;;;;;;;;;3597716;39;20480;-72
2021/05/23 09:11:36;;;;;;;4.93;0.90;;;;;;;;;;3592902;39;20370;-72
2021/05/23 09:14:04;;;;;;;4.25;0.93;;;;;;;;;;3595598;39;20384;-73
2021/05/23 09:16:37;;;;;;;2.90;0.88;;;;;;;;;;3598044;39;20415;-72
2021/05/23 09:19:03;;;;;;;2.95;0.90;;;19.60;99.90;;;;;;3590669;39;20769;-72
2021/05/23 09:21:30;;;;;;;3.47;0.80;;;;;;;;;;3594413;39;20421;-72
2021/05/23 09:23:58;;;;;;;2.90;0.80;;;;;;;;;;3594875;39;20734;-71
2021/05/23 09:26:26;;;;;;;4.75;1.35;;;20.90;99.90;;;;;;3594834;39;20389;-72
2021/05/23 09:28:53;;;;;;;4.20;1.03;;;;;;;;;;3595886;39;20372;-72
2021/05/23 09:31:21;;;;;;;2.80;1.00;;;21.90;98.90;;;;;;3604691;39;20359;-72
2021/05/23 09:33:52;;;;;;;3.35;0.77;;;21.80;99.60;;;;;;3600266;39;20517;-72
2021/05/23 09:36:19;;;;;;;2.25;0.77;;;21.60;99.00;;;;;;3602473;39;20514;-72
2021/05/23 09:38:53;;;;;;;3.60;0.90;;;21.70;98.60;;;;;;3594211;39;20392;-72
2021/05/23 09:41:20;;;;;;;4.15;1.23;;;;;;;;;;3592176;39;20401;-72
2021/05/23 09:43:47;;;;;;;5.03;1.45;;;;;;;;;;3592469;39;20769;-72
2021/05/23 09:46:13;;;;;;;2.85;1.25;;;;;;;;;;3593929;39;20634;-72
2021/05/23 09:48:48;;;;;;;4.47;0.98;;;21.50;97.80;;;;;;3588115;39;20790;-72
2021/05/23 09:51:15;;;;;;;5.53;1.00;;;;;;;;;;3595092;39;20380;-73
2021/05/23 09:53:43;;;;;;;6.22;1.45;;;21.90;98.50;;;;;;3594734;40;21162;-73
2021/05/23 09:56:12;;;;;;;4.18;1.20;;;22.20;98.10;;;;;;3583353;39;20446;-73
2021/05/23 09:58:39;;;;;;;4.28;1.27;;;22.00;98.70;;;;;;3593282;39;20401;-72
2021/05/23 10:01:08;;;;;;;3.53;0.93;;;;;;;;;;3594092;39;20443;-72
2021/05/23 10:03:36;;;;;;;3.53;1.10;;;21.60;98.30;;;;;;3584423;40;20359;-72
2021/05/23 10:06:03;;;;;;;3.83;1.00;;;21.60;97.70;;;;;;3582660;40;20386;-73
2021/05/23 10:08:29;;;;;;;3.72;1.10;;;21.60;98.00;;;;;;3581447;40;20429;-73
2021/05/23 10:10:56;;;;;;;3.83;1.25;;;21.70;97.90;;;;;;3583504;40;20450;-73
2021/05/23 10:13:24;;;;;;;3.47;1.17;;;21.90;98.00;;;;;;3584343;40;20441;-73
2021/05/23 10:15:51;;;;;;;7.55;1.20;;;21.90;96.60;;;;;;3582474;40;20761;-73
2021/05/23 10:18:22;;;;;;;3.92;1.10;;;22.10;97.90;;;;;;3583254;40;20411;-72
2021/05/23 10:20:54;;;;;;;3.17;0.77;;;22.30;96.80;;;;;;3583072;40;20435;-73
2021/05/23 10:23:25;;;;;;;4.22;1.02;;;22.00;95.50;;;;;;3574226;40;20390;-73
2021/05/23 10:25:53;;;;;;;2.43;0.90;;;21.80;97.40;;;;;;3582045;40;20472;-72
2021/05/23 10:28:20;;;;;;;3.53;0.97;;;22.00;97.40;;;;;;3582799;40;20400;-72
2021/05/23 10:30:48;;;;;;;3.58;0.80;;;22.20;96.90;;;;;;3581265;40;20741;-73
2021/05/23 10:33:14;;;;;;;3.33;0.68;;;22.30;96.80;;;;;;3583649;40;20782;-74
2021/05/23 10:35:43;;;;;;;4.00;0.80;;;22.40;97.00;;;;;;3582318;40;20489;-73
2021/05/23 10:38:11;;;;;;;2.85;0.77;;;22.60;96.20;;;;;;3582280;40;20402;-73
2021/05/23 10:40:49;;;;;;;3.13;1.05;;;22.40;95.70;;;;;;3582036;40;20572;-73
2021/05/23 10:43:20;;;;;;;4.03;0.80;;;;;;;;;;3572474;40;20414;-73
2021/05/23 10:45:46;;;;;;;2.83;0.73;;;22.70;96.50;;;;;;3574270;40;20397;-73
2021/05/23 10:48:13;;;;;;;3.30;0.75;;;;;;;;;;3575445;40;20792;-72
2021/05/23 10:50:40;;;;;;;3.47;0.70;;;22.60;94.60;;;;;;3574283;40;20412;-73
2021/05/23 10:53:07;;;;;;;2.47;0.57;;;23.20;92.30;;;;;;3577261;40;20419;-73
2021/05/23 10:55:34;;;;;;;2.75;0.70;;;23.20;93.10;;;;;;3577658;40;20788;-73
2021/05/23 10:58:00;;;;;;;2.22;0.85;;;23.40;92.70;;;;;;3563352;40;20414;-73
2021/05/23 11:00:29;;;;;;;3.40;0.70;;;23.80;92.00;;;;;;3563895;40;20446;-73
2021/05/23 11:02:56;;;;;;;2.20;0.60;;;23.90;91.50;;;;;;3563998;40;20489;-73
2021/05/23 11:05:23;;;;;;;3.83;0.50;;;24.30;88.20;;;;;;3564163;40;20467;-73
2021/05/23 11:07:57;;;;;;;1.90;0.50;;;;;;;;;;3564061;40;20401;-73
2021/05/23 11:10:25;;;;;;;2.73;0.70;;;;;;;;;;3563675;40;20382;-73
2021/05/23 11:12:52;;;;;;;3.28;0.70;;;;;;;;;;3563276;40;20398;-72
2021/05/23 11:15:18;;;;;;;2.08;0.70;;;23.80;88.80;;;;;;3562086;40;20496;-73
2021/05/23 11:17:45;;;;;;;2.65;0.80;;;;;;;;;;3578301;40;20392;-73
2021/05/23 11:20:15;;;;;;;2.40;0.50;;;22.40;92.90;;;;;;3577928;40;20390;-73
2021/05/23 11:22:42;;;;;;;2.10;0.68;;;23.20;90.90;;;;;;3578595;40;20426;-73
2021/05/23 11:25:09;;;;;;;1.52;0.50;;;23.60;92.60;;;;;;3579115;40;20387;-73
2021/05/23 11:27:36;;;;;;;1.23;0.40;;;23.70;88.80;;;;;;3569271;40;20410;-73
2021/05/23 11:30:11;;;;;;;2.83;0.68;;;24.00;86.70;;;;;;3577862;40;20407;-73
2021/05/23 11:32:37;;;;;;;1.50;0.45;;;23.90;84.90;;;;;;3579059;40;20696;-73
2021/05/23 11:35:03;;;;;;;2.22;0.55;;;23.80;87.10;;;;;;3578478;40;20406;-73
2021/05/23 11:37:36;;;;;;;1.60;0.40;;;23.80;85.70;;;;;;3574325;40;20398;-73
2021/05/23 11:40:08;;;;;;;2.17;0.47;;;23.80;82.50;;;;;;3582819;40;20658;-73
2021/05/23 11:42:41;;;;;;;2.50;0.50;;;23.70;86.10;;;;;;3580272;40;20399;-72
2021/05/23 11:45:17;;;;;;;2.15;0.50;;;24.10;85.70;;;;;;3580897;40;20416;-73
2021/05/23 11:47:44;;;;;;;3.72;0.50;;;;;;;;;;3580583;40;20779;-73
2021/05/23 11:50:20;;;;;;;1.80;0.30;;;;;;;;;;3580699;40;20381;-73
2021/05/23 11:52:49;;;;;;;2.60;0.55;;;;;;;;;;3580087;40;20665;-73
2021/05/23 11:55:15;;;;;;;1.92;0.38;;;;;;;;;;3580188;40;20460;-73
2021/05/23 11:57:42;;;;;;;0.73;0.30;;;;;;;;;;3580689;40;20772;-73
2021/05/23 12:00:16;;;;;;;2.35;0.60;;;;;;;;;;3579296;40;20465;-74
2021/05/23 12:02:42;;;;;;;2.50;0.50;;;;;;;;;;3590184;39;20402;-73
2021/05/23 12:05:09;;;;;;;2.70;0.70;;;;;;;;;;3589505;39;20745;-73
2021/05/23 12:07:38;;;;;;;1.90;0.57;;;;;;;;;;3594805;39;20389;-72
2021/05/23 12:10:05;;;;;;;1.48;0.50;;;;;;;;;;3594008;39;20390;-73
2021/05/23 12:12:31;;;;;;;1.67;0.40;;;;;;;;;;3594481;39;20396;-71
2021/05/23 12:14:58;;;;;;;2.45;0.47;;;;;;;;;;3593673;39;20393;-73
2021/05/23 12:17:24;;;;;;;2.40;0.40;;;;;;;;;;3594201;39;20376;-72
2021/05/23 12:22:19;;;;;;;1.73;0.60;;;;;;;;;;3593253;39;20413;-73
2021/05/23 12:24:45;;;;;;;1.58;0.50;;;;;;;;;;3595807;39;20359;-74
2021/05/23 12:27:15;;;;;;;3.15;0.50;;;;;;;;;;3588914;39;20437;-73
2021/05/23 12:29:44;;;;;;;1.92;0.50;;;;;;;;;;3594019;39;20670;-73
2021/05/23 12:32:11;;;;;;;1.80;0.50;;;;;;;;;;3591403;39;20438;-72
2021/05/23 12:34:42;;;;;;;1.60;0.50;;;;;;;;;;3593056;39;20576;-73
2021/05/23 12:37:08;;;;;;;3.83;0.50;;;;;;;;;;3595183;40;20360;-73
2021/05/23 12:39:34;;;;;;;3.70;0.50;;;;;;;;;;3595663;39;20709;-73
2021/05/23 12:42:02;;;;;;;1.42;0.30;;;;;;;;;;3595066;39;20384;-72
2021/05/23 12:44:29;;;;;;;2.88;0.65;;;;;;;;;;3596229;39;20368;-73
2021/05/23 12:46:55;;;;;;;1.58;0.50;;;;;;;;;;3596499;39;20376;-73
2021/05/23 12:49:23;;;;;;;1.67;0.50;;;;;;;;;;3596122;40;20443;-72
2021/05/23 12:51:52;;;;;;;1.75;0.68;;;;;;;;;;3594814;40;20403;-73
2021/05/23 12:54:24;;;;;;;1.80;0.47;;;;;;;;;;3595355;39;20377;-73
2021/05/23 12:56:51;;;;;;;1.30;0.47;;;;;;;;;;3595415;39;20384;-72
2021/05/23 12:59:19;;;;;;;1.70;0.40;;;;;;;;;;3591723;39;20402;-72
2021/05/23 13:01:46;;;;;;;1.80;0.75;;;;;;;;;;3596357;39;20419;-72
2021/05/23 13:04:14;;;;;;;1.80;0.40;;;;;;;;;;3586955;40;20615;-71
2021/05/23 13:06:47;;;;;;;2.00;0.50;;;;;;;;;;3590936;40;20499;-71
2021/05/23 13:09:13;;;;;;;1.52;0.40;;;;;;;;;;3596149;39;20391;-73
2021/05/23 13:11:47;;;;;;;2.33;0.40;;;;;;;;;;3594796;39;20646;-72
2021/05/23 13:14:13;;;;;;;2.85;0.50;;;;;;;;;;3596088;39;20417;-73
2021/05/23 13:16:43;;;;;;;1.63;0.50;;;;;;;;;;3599022;39;20738;-71
2021/05/23 13:19:11;;;;;;;16.33;0.60;;;;;;;;;;3595772;39;20380;-70
2021/05/23 13:21:37;;;;;;;1.05;0.30;;;;;;;;;;3595025;39;20392;-70
2021/05/23 13:24:05;;;;;;;1.50;0.40;;;;;;;;;;3594829;40;20661;-71
2021/05/23 13:26:31;;;;;;;1.73;0.33;;;;;;;;;;3595880;40;20749;-70
2021/05/23 13:28:57;;;;;;;2.40;0.55;;;;;;;;;;3595114;40;20380;-70
2021/05/23 13:31:23;;;;;;;2.10;0.40;;;;;;;;;;3596426;39;20757;-72
2021/05/23 13:33:49;;;;;;;1.52;0.40;;;;;;;;;;3595994;39;20376;-72
2021/05/23 13:36:18;;;;;;;1.58;0.35;;;;;;;;;;3597015;39;20371;-72
2021/05/23 13:38:44;;;;;;;1.85;0.40;;;;;;;;;;3595930;40;20376;-73
2021/05/23 13:41:11;;;;;;;1.75;0.50;;;;;;;;;;3596158;39;20373;-73
2021/05/23 13:43:37;;;;;;;1.98;0.47;;;;;;;;;;3597321;40;20772;-73
2021/05/23 13:46:03;;;;;;;1.25;0.40;;;;;;;;;;3598054;39;20391;-72
2021/05/23 13:48:29;;;;;;;1.83;0.60;;;;;;;;;;3597209;39;20461;-72
2021/05/23 13:50:56;;;;;;;1.02;0.50;;;;;;;;;;3597171;39;20652;-73
2021/05/23 13:53:22;;;;;;;1.42;0.40;;;;;;;;;;3597728;39;20750;-72
2021/05/23 13:55:48;;;;;;;1.65;0.52;;;;;;;;;;3601539;39;20379;-72
2021/05/23 13:58:15;;;;;;;2.22;0.47;;;;;;;;;;3597122;39;20402;-72
2021/05/23 14:00:41;;;;;;;1.50;0.45;;;;;;;;;;3602368;39;20393;-72
2021/05/23 14:03:18;;;;;;;1.65;0.63;;;;;;;;;;3590403;40;20362;-73
2021/05/23 14:05:45;;;;;;;2.10;0.40;;;;;;;;;;3575600;40;20411;-73
2021/05/23 14:08:11;;;;;;;0.80;0.30;;;;;;;;;;3575054;40;20408;-72
2021/05/23 14:10:37;;;;;;;1.85;0.38;;;;;;;;;;3577632;40;20394;-72
2021/05/23 14:13:04;;;;;;;1.50;0.40;;;;;;;;;;3581877;40;20458;-72
2021/05/23 14:15:31;;;;;;;3.10;0.70;;;;;;;;;;3577061;40;20890;-73
2021/05/23 14:17:57;;;;;;;2.20;0.70;;;;;;;;;;3578921;40;20397;-72
2021/05/23 14:20:26;;;;;;;1.38;0.38;;;;;;;;;;3581659;40;20398;-72
2021/05/23 14:22:52;;;;;;;3.37;0.50;;;;;;;;;;3581634;40;20392;-73